Time;durP1;ratioP1;P1;durP2;ratioP2;P2;SDS_P1;SDS_P2;PMS_P1;PMS_P2;Temp;Humidity;BMP_temperature;BMP_pressure;BME280_temperature;BME280_humidity;BME280_pressure;Samples;Min_cycle;Max_cycle;Signal;HPM_P1;HPM_P2
2023/10/15 00:02:03;;;;;;;;;3.00;2.00;;;;;11.61;100.00;101692.53;5031427;28;45907;-80
2023/10/15 00:04:29;;;;;;;;;2.00;1.67;;;;;11.50;100.00;101680.16;5014739;28;47138;-80
2023/10/15 00:06:57;;;;;;;;;3.33;1.67;;;;;11.57;100.00;101693.97;5024209;28;45562;-79
2023/10/15 00:09:23;;;;;;;;;1.33;0.33;;;;;11.54;100.00;101688.84;5019710;28;45765;-82
2023/10/15 00:11:51;;;;;;;;;2.67;1.33;;;;;11.52;100.00;101696.44;5018987;28;46038;-78
2023/10/15 00:14:17;;;;;;;;;0.67;0.67;;;;;11.43;100.00;101688.28;5018897;28;47669;-79
2023/10/15 00:16:43;;;;;;;;;2.33;2.00;;;;;11.34;100.00;101678.47;5023430;28;45564;-79
2023/10/15 00:19:12;;;;;;;;;2.00;2.00;;;;;11.46;100.00;101687.91;5018147;28;45594;-80
2023/10/15 00:21:38;;;;;;;;;0.67;0.67;;;;;11.36;100.00;101670.91;5036761;28;45725;-80
2023/10/15 00:24:10;;;;;;;;;2.00;2.00;;;;;11.41;100.00;101684.91;5027540;28;47401;-80
2023/10/15 00:26:38;;;;;;;;;1.67;1.33;;;;;11.37;100.00;101689.06;5036940;28;46526;-80
2023/10/15 00:29:08;;;;;;;;;2.00;2.00;;;;;11.32;100.00;101686.06;5037870;28;45470;-79
2023/10/15 00:31:34;;;;;;;;;2.00;1.00;;;;;11.27;100.00;101683.00;5037415;28;45613;-79
2023/10/15 00:33:59;;;;;;;;;2.00;2.00;;;;;11.24;100.00;101683.38;5014860;28;46290;-77
2023/10/15 00:36:27;;;;;;;;;2.67;1.67;;;;;11.15;100.00;101679.03;5020035;28;45495;-80
2023/10/15 00:38:53;;;;;;;;;3.33;2.00;;;;;11.21;100.00;101689.25;5012194;28;45864;-80
2023/10/15 00:41:18;;;;;;;;;1.67;1.67;;;;;11.19;100.00;101685.88;5007505;28;46353;-81
2023/10/15 00:43:52;;;;;;;;;3.00;2.00;;;;;11.18;100.00;101695.13;5022197;28;46219;-81
2023/10/15 00:46:18;;;;;;;;;2.33;1.00;;;;;11.16;100.00;101695.31;5017853;28;45474;-81
2023/10/15 00:48:45;;;;;;;;;3.67;1.67;;;;;11.06;100.00;101678.28;5017404;28;45801;-79
2023/10/15 00:51:12;;;;;;;;;3.00;2.67;;;;;10.96;100.00;101667.59;5016070;28;45645;-79
2023/10/15 00:53:49;;;;;;;;;3.67;2.33;;;;;10.78;100.00;101641.38;5015451;28;48079;-80
2023/10/15 00:56:18;;;;;;;;;5.00;2.67;;;;;11.05;100.00;101698.56;5014175;28;45553;-80
2023/10/15 00:59:07;;;;;;;;;3.00;3.00;;;;;11.04;100.00;101694.94;5017276;28;45522;-80
2023/10/15 01:01:35;;;;;;;;;2.00;2.00;;;;;11.04;100.00;101694.09;5002834;28;45415;-80
2023/10/15 01:04:09;;;;;;;;;1.33;1.00;;;;;10.98;100.00;101690.22;5016608;28;46166;-80
2023/10/15 01:06:40;;;;;;;;;3.00;1.67;;;;;10.93;100.00;101687.19;4998070;28;45473;-81
2023/10/15 01:09:31;;;;;;;;;3.00;2.00;;;;;10.97;100.00;101693.97;5007321;28;45409;-81
2023/10/15 01:12:03;;;;;;;;;4.67;3.00;;;;;11.00;100.00;101701.84;5009802;28;45422;-80
2023/10/15 01:14:32;;;;;;;;;5.67;3.33;;;;;11.00;100.00;101692.75;5014332;28;45569;-81
2023/10/15 01:17:02;;;;;;;;;2.00;2.00;;;;;11.01;100.00;101689.00;5014888;28;45574;-80
2023/10/15 01:19:32;;;;;;;;;1.67;1.67;;;;;11.04;100.00;101688.63;5013325;28;45811;-79
2023/10/15 01:22:01;;;;;;;;;3.33;3.00;;;;;10.98;100.00;101673.75;5006340;28;45779;-80
2023/10/15 01:24:27;;;;;;;;;6.33;5.67;;;;;11.02;100.00;101677.81;5015274;28;46341;-79
2023/10/15 01:27:04;;;;;;;;;4.00;2.67;;;;;11.18;100.00;101689.66;5015508;28;45450;-80
2023/10/15 01:29:34;;;;;;;;;3.33;2.67;;;;;11.13;100.00;101674.59;5013354;28;45825;-79
2023/10/15 01:32:02;;;;;;;;;7.67;5.00;;;;;11.24;100.00;101688.88;5012022;28;45548;-80
2023/10/15 01:34:29;;;;;;;;;5.00;4.33;;;;;11.26;100.00;101678.56;5006001;28;47200;-80
2023/10/15 01:36:56;;;;;;;;;5.67;5.33;;;;;11.29;100.00;101687.28;5007564;28;45451;-79
2023/10/15 01:39:39;;;;;;;;;3.33;2.33;;;;;11.15;100.00;101657.91;5011808;28;45459;-82
2023/10/15 01:42:06;;;;;;;;;2.00;2.00;;;;;11.21;100.00;101657.19;4998023;28;45733;-79
2023/10/15 01:44:33;;;;;;;;;4.00;4.00;;;;;11.17;100.00;101660.47;4999012;28;46391;-79
2023/10/15 01:49:36;;;;;;;;;3.67;2.33;;;;;11.24;100.00;101684.25;5014840;28;45583;-80
2023/10/15 01:52:09;;;;;;;;;9.33;6.33;;;;;11.22;100.00;101680.84;5011113;28;45798;-81
2023/10/15 01:54:39;;;;;;;;;7.67;7.00;;;;;11.14;100.00;101675.47;5014028;28;47070;-81
2023/10/15 01:57:06;;;;;;;;;3.00;3.00;;;;;11.17;100.00;101682.44;5010825;28;45439;-79
2023/10/15 01:59:47;;;;;;;;;4.67;4.67;;;;;11.16;100.00;101684.34;5008321;28;45407;-79
2023/10/15 02:02:15;;;;;;;;;3.67;3.33;;;;;11.11;100.00;101687.66;5006039;28;46739;-80
2023/10/15 02:04:46;;;;;;;;;3.00;3.00;;;;;11.10;100.00;101688.69;5014382;28;46742;-77
2023/10/15 02:07:19;;;;;;;;;6.00;5.00;;;;;11.03;100.00;101697.88;4999119;28;45491;-79
2023/10/15 02:09:46;;;;;;;;;3.67;2.33;;;;;11.01;100.00;101689.00;5012137;28;45556;-80
2023/10/15 02:12:13;;;;;;;;;3.00;3.00;;;;;11.00;100.00;101698.25;5014666;28;45489;-79
2023/10/15 02:14:42;;;;;;;;;5.00;2.33;;;;;11.00;100.00;101693.59;5014723;28;45452;-78
2023/10/15 02:17:13;;;;;;;;;3.33;2.33;;;;;11.01;100.00;101676.09;5002181;28;46178;-78
2023/10/15 02:19:41;;;;;;;;;5.33;4.00;;;;;11.12;100.00;101685.75;5015511;28;45461;-82
2023/10/15 02:22:12;;;;;;;;;6.00;2.00;;;;;11.19;100.00;101691.34;5020567;28;45374;-80
2023/10/15 02:24:37;;;;;;;;;2.00;2.00;;;;;11.10;100.00;101676.88;5020902;28;45493;-79
2023/10/15 02:27:05;;;;;;;;;2.00;1.67;;;;;11.22;100.00;101697.31;5016192;28;45740;-79
2023/10/15 02:31:58;;;;;;;;;2.00;2.00;;;;;11.25;100.00;101696.09;5011176;28;45727;-79
2023/10/15 02:34:27;;;;;;;;;4.00;4.00;;;;;11.24;100.00;101687.00;5010772;28;46242;-80
2023/10/15 02:36:54;;;;;;;;;4.67;2.67;;;;;11.29;100.00;101691.94;5036894;28;46639;-81
2023/10/15 02:39:22;;;;;;;;;3.00;3.00;;;;;11.35;100.00;101707.63;5031957;28;45574;-79
2023/10/15 02:41:48;;;;;;;;;3.00;2.00;;;;;11.18;100.00;101678.66;5037821;28;45422;-79
2023/10/15 02:44:13;;;;;;;;;3.67;2.33;;;;;11.29;100.00;101708.41;5037114;28;46116;-79
2023/10/15 02:46:47;;;;;;;;;1.67;1.67;;;;;11.16;100.00;101697.22;5038314;28;45684;-79
2023/10/15 02:49:15;;;;;;;;;1.67;1.67;;;;;11.17;100.00;101710.78;5038127;28;45491;-79
2023/10/15 02:51:48;;;;;;;;;4.33;2.67;;;;;11.08;100.00;101700.94;4999878;28;46422;-78
2023/10/15 02:54:26;;;;;;;;;3.67;2.67;;;;;11.08;100.00;101706.41;5003590;28;47033;-81
2023/10/15 02:56:56;;;;;;;;;2.00;2.00;;;;;10.98;100.00;101709.41;5037822;28;45432;-79
2023/10/15 02:59:23;;;;;;;;;2.00;2.00;;;;;11.01;100.00;101722.78;5038031;28;45632;-79
2023/10/15 03:01:54;;;;;;;;;3.00;3.00;;;;;10.94;100.00;101727.28;5036711;28;45535;-79
2023/10/15 03:04:32;;;;;;;;;3.33;3.33;;;;;10.78;100.00;101704.47;5037246;28;46172;-79
2023/10/15 03:07:17;;;;;;;;;4.00;3.00;;;;;10.86;100.00;101719.16;5021208;28;44843;-80
2023/10/15 03:09:44;;;;;;;;;5.00;4.00;;;;;10.85;100.00;101723.78;5020256;28;45804;-79
2023/10/15 03:12:13;;;;;;;;;2.33;2.33;;;;;10.76;100.00;101708.44;5034151;28;45600;-80
2023/10/15 03:14:41;;;;;;;;;3.00;3.00;;;;;10.75;100.00;101707.59;5031997;28;45821;-80
2023/10/15 03:17:13;;;;;;;;;3.33;2.00;;;;;10.78;100.00;101712.72;5031267;28;45441;-79
2023/10/15 03:19:39;;;;;;;;;3.00;3.00;;;;;10.64;100.00;101697.06;5036879;28;45486;-79
2023/10/15 03:22:08;;;;;;;;;2.67;2.00;;;;;10.70;100.00;101723.78;5018564;28;46180;-80
2023/10/15 03:24:34;;;;;;;;;3.00;2.00;;;;;10.59;100.00;101711.34;5015807;28;48218;-80
2023/10/15 03:27:00;;;;;;;;;4.00;2.00;;;;;10.62;100.00;101721.09;5030722;28;45540;-79
2023/10/15 03:29:26;;;;;;;;;3.67;3.00;;;;;10.49;100.00;101707.16;5016554;28;45452;-78
2023/10/15 03:32:04;;;;;;;;;3.67;3.67;;;;;10.52;100.00;101724.06;5029059;28;45358;-78
2023/10/15 03:35:18;;;;;;;;;4.67;4.00;;;;;10.55;100.00;101728.34;5030480;28;45404;-78
2023/10/15 03:37:22;;;;;;;;;3.00;2.00;;;;;10.51;100.00;101729.75;5032891;28;45893;-78
2023/10/15 03:39:54;;;;;;;;;3.67;2.33;;;;;10.44;100.00;101724.16;5007203;28;45411;-81
2023/10/15 03:42:26;;;;;;;;;3.67;2.00;;;;;10.32;100.00;101715.47;5035676;28;45441;-80
2023/10/15 03:44:59;;;;;;;;;6.67;2.00;;;;;10.36;100.00;101730.56;5028921;28;48239;-79
2023/10/15 03:47:24;;;;;;;;;5.67;3.00;;;;;10.27;100.00;101723.41;5036508;28;45111;-79
2023/10/15 03:49:51;;;;;;;;;2.33;2.33;;;;;10.25;100.00;101717.25;5019065;28;45599;-79
2023/10/15 03:52:20;;;;;;;;;3.00;1.67;;;;;10.20;100.00;101716.94;5037140;28;45944;-78
2023/10/15 03:54:49;;;;;;;;;4.67;4.00;;;;;10.16;100.00;101712.88;5023945;28;45460;-79
2023/10/15 03:57:18;;;;;;;;;4.33;3.00;;;;;10.24;100.00;101738.34;5023798;28;45935;-78
2023/10/15 03:59:57;;;;;;;;;3.67;3.67;;;;;10.15;100.00;101725.72;5017112;28;45516;-82
2023/10/15 04:03:08;;;;;;;;;5.33;3.00;;;;;10.18;100.00;101744.56;5017657;28;45459;-82
2023/10/15 04:05:14;;;;;;;;;7.33;4.00;;;;;10.15;100.00;101755.00;5008422;28;46204;-79
2023/10/15 04:07:48;;;;;;;;;3.00;3.00;;;;;10.10;100.00;101746.47;5013435;28;45435;-87
2023/10/15 04:10:23;;;;;;;;;3.00;3.00;;;;;10.09;100.00;101756.59;5013509;28;45547;-79
2023/10/15 04:12:49;;;;;;;;;6.00;4.00;;;;;10.08;100.00;101752.16;5015850;28;46249;-81
2023/10/15 04:15:16;;;;;;;;;3.67;3.00;;;;;10.09;100.00;101751.13;5036689;28;45540;-79
2023/10/15 04:17:48;;;;;;;;;5.33;4.33;;;;;10.03;100.00;101747.22;5037723;28;45427;-80
2023/10/15 04:20:35;;;;;;;;;5.33;5.33;;;;;10.08;100.00;101750.25;5028782;28;45600;-81
2023/10/15 04:23:01;;;;;;;;;4.00;3.67;;;;;9.99;100.00;101734.91;5038391;28;45435;-80
2023/10/15 04:25:32;;;;;;;;;5.00;5.00;;;;;10.20;100.00;101771.78;5034855;28;45855;-79
2023/10/15 04:28:08;;;;;;;;;4.00;4.00;;;;;10.28;100.00;101774.44;5017467;28;45674;-80
2023/10/15 04:30:38;;;;;;;;;6.00;5.00;;;;;10.40;100.00;101792.25;5036551;28;45581;-78
2023/10/15 04:33:10;;;;;;;;;2.00;2.00;;;;;10.40;100.00;101775.78;5003629;28;45747;-81
2023/10/15 04:35:37;;;;;;;;;4.00;3.00;;;;;10.57;100.00;101790.22;5035205;28;45487;-81
2023/10/15 04:38:07;;;;;;;;;5.00;2.00;;;;;10.52;100.00;101761.63;5035233;28;45464;-79
2023/10/15 04:40:47;;;;;;;;;5.00;5.00;;;;;10.69;100.00;101779.69;5014976;28;45527;-81
2023/10/15 04:43:13;;;;;;;;;4.00;4.00;;;;;10.80;100.00;101783.03;4998793;28;46078;-80
2023/10/15 04:45:44;;;;;;;;;4.00;4.00;;;;;10.91;100.00;101785.31;5029196;28;45438;-80
2023/10/15 04:48:14;;;;;;;;;5.33;3.00;;;;;10.81;100.00;101760.00;5010375;28;45370;-81
2023/10/15 04:50:40;;;;;;;;;6.33;6.00;;;;;11.03;100.00;101786.59;5020398;28;45389;-80
2023/10/15 04:53:13;;;;;;;;;3.67;3.67;;;;;11.09;100.00;101791.34;5013599;28;46132;-81
2023/10/15 04:55:48;;;;;;;;;5.67;4.00;;;;;11.16;100.00;101791.41;5036287;28;45576;-81
2023/10/15 04:58:15;;;;;;;;;5.00;4.00;;;;;11.24;100.00;101788.59;5013982;28;45701;-81
2023/10/15 05:00:48;;;;;;;;;6.00;4.00;;;;;11.26;100.00;101789.25;5035154;28;45436;-82
2023/10/15 05:03:14;;;;;;;;;4.00;4.00;;;;;11.36;100.00;101785.38;5023692;28;45825;-80
2023/10/15 05:05:43;;;;;;;;;6.33;5.33;;;;;11.36;100.00;101774.41;5021052;28;47417;-81
2023/10/15 05:08:11;;;;;;;;;4.00;4.00;;;;;11.40;100.00;101775.72;5041760;28;45867;-80
2023/10/15 05:10:38;;;;;;;;;4.67;4.67;;;;;11.41;100.00;101782.94;5016564;28;45317;-82
2023/10/15 05:13:04;;;;;;;;;5.00;4.00;;;;;11.31;100.00;101764.81;5038427;28;45773;-81
2023/10/15 05:15:30;;;;;;;;;4.00;4.00;;;;;11.28;100.00;101759.72;5037829;28;46169;-80
2023/10/15 05:17:55;;;;;;;;;4.67;3.00;;;;;11.23;100.00;101758.59;5033936;28;45515;-81
2023/10/15 05:20:27;;;;;;;;;5.33;4.67;;;;;11.21;100.00;101774.38;5022193;28;45559;-82
2023/10/15 05:22:52;;;;;;;;;4.33;4.00;;;;;11.16;100.00;101783.19;5038117;28;45388;-81
2023/10/15 05:25:18;;;;;;;;;5.00;5.00;;;;;11.11;100.00;101778.25;5017451;28;48181;-80
2023/10/15 05:27:44;;;;;;;;;6.67;4.00;;;;;11.04;100.00;101777.28;5016091;28;45449;-80
2023/10/15 05:30:12;;;;;;;;;7.00;6.00;;;;;10.92;100.00;101776.03;5032553;28;45532;-80
2023/10/15 05:32:38;;;;;;;;;5.33;3.00;;;;;10.82;100.00;101772.72;5033018;28;45489;-81
2023/10/15 05:35:08;;;;;;;;;3.67;3.67;;;;;10.69;100.00;101768.72;5032460;28;47182;-78
2023/10/15 05:37:36;;;;;;;;;7.00;5.00;;;;;10.68;100.00;101785.34;5032302;28;47243;-79
2023/10/15 05:40:03;;;;;;;;;3.00;3.00;;;;;10.67;100.00;101800.09;5031116;28;45606;-80
2023/10/15 05:42:29;;;;;;;;;7.00;5.67;;;;;10.58;100.00;101805.66;5032453;28;45745;-82
2023/10/15 05:44:55;;;;;;;;;6.67;5.67;;;;;10.49;100.00;101814.13;5026739;28;45659;-79
2023/10/15 05:47:21;;;;;;;;;5.33;5.00;;;;;10.38;100.00;101805.28;5032293;28;45414;-79
2023/10/15 05:49:46;;;;;;;;;6.00;5.00;;;;;10.29;100.00;101794.53;5027932;28;45792;-79
2023/10/15 05:52:12;;;;;;;;;4.00;4.00;;;;;10.21;100.00;101792.69;5012818;28;46223;-79
2023/10/15 05:54:37;;;;;;;;;5.00;3.33;;;;;10.23;100.00;101805.16;5014762;28;45956;-78
2023/10/15 05:57:05;;;;;;;;;2.00;2.00;;;;;10.15;100.00;101801.59;5006829;28;45921;-79
2023/10/15 05:59:31;;;;;;;;;3.00;3.00;;;;;10.04;100.00;101786.44;5036068;28;45827;-80
2023/10/15 06:01:58;;;;;;;;;5.00;5.00;;;;;10.09;100.00;101805.94;5036852;28;45396;-80
2023/10/15 06:04:23;;;;;;;;;3.00;3.00;;;;;10.01;100.00;101806.81;5034414;28;48312;-80
2023/10/15 06:06:49;;;;;;;;;3.67;3.00;;;;;10.01;100.00;101812.28;5015348;28;45644;-80
2023/10/15 06:09:14;;;;;;;;;4.67;4.00;;;;;10.00;100.00;101818.81;5018419;28;45586;-81
2023/10/15 06:11:40;;;;;;;;;3.33;3.00;;;;;9.86;100.00;101801.22;5035976;28;45943;-80
2023/10/15 06:14:05;;;;;;;;;7.67;5.67;;;;;9.90;100.00;101807.22;5019706;28;48967;-80
2023/10/15 06:16:31;;;;;;;;;6.00;3.00;;;;;9.86;100.00;101797.66;5041635;28;45368;-80
2023/10/15 06:19:00;;;;;;;;;3.67;3.67;;;;;9.80;100.00;101784.66;5045292;28;44753;-84
2023/10/15 06:21:25;;;;;;;;;4.67;3.67;;;;;9.93;100.00;101806.88;5021388;28;46044;-81
2023/10/15 06:23:52;;;;;;;;;7.00;5.67;;;;;10.07;100.00;101821.69;5019398;28;48391;-80
2023/10/15 06:26:17;;;;;;;;;5.67;3.67;;;;;10.12;100.00;101832.13;5016588;28;45456;-81
2023/10/15 06:28:46;;;;;;;;;5.33;5.33;;;;;10.16;100.00;101828.84;5016660;28;45544;-80
2023/10/15 06:31:12;;;;;;;;;3.67;3.67;;;;;10.33;100.00;101818.69;5029250;28;45609;-81
2023/10/15 06:33:40;;;;;;;;;4.33;4.00;;;;;10.58;100.00;101827.59;5029571;28;45420;-81
2023/10/15 06:36:08;;;;;;;;;4.00;4.00;;;;;10.52;100.00;101811.84;5018518;28;45960;-81
2023/10/15 06:38:35;;;;;;;;;8.33;5.33;;;;;10.62;100.00;101828.09;5032767;28;45797;-81
2023/10/15 06:41:01;;;;;;;;;6.67;5.00;;;;;10.65;100.00;101838.69;5034993;28;45577;-81
2023/10/15 06:43:30;;;;;;;;;4.33;3.00;;;;;10.36;100.00;101796.38;5018999;28;46581;-85
2023/10/15 06:46:06;;;;;;;;;5.00;5.00;;;;;10.58;100.00;101838.56;5040713;28;45519;-85
2023/10/15 06:48:34;;;;;;;;;7.67;5.00;;;;;10.64;100.00;101836.13;5024458;28;45419;-86
2023/10/15 06:51:04;;;;;;;;;7.67;5.00;;;;;10.70;100.00;101852.72;5030853;28;45549;-84
2023/10/15 06:53:37;;;;;;;;;7.67;5.33;;;;;10.36;100.00;101796.38;5033668;28;45637;-85
2023/10/15 06:56:06;;;;;;;;;6.33;5.00;;;;;10.71;100.00;101854.41;5033424;28;45700;-85
2023/10/15 06:58:38;;;;;;;;;5.00;4.00;;;;;10.71;100.00;101857.16;5030025;28;44841;-85
2023/10/15 07:01:07;;;;;;;;;4.00;4.00;;;;;10.67;100.00;101850.31;5046835;28;45556;-86
2023/10/15 07:03:33;;;;;;;;;8.00;5.67;;;;;10.63;100.00;101843.50;5027601;28;47932;-86
2023/10/15 07:05:59;;;;;;;;;6.00;6.00;;;;;10.61;100.00;101840.06;5035399;28;44847;-84
2023/10/15 07:08:25;;;;;;;;;5.33;4.00;;;;;10.75;100.00;101855.75;5037244;28;44829;-86
2023/10/15 07:10:54;;;;;;;;;6.67;4.00;;;;;10.80;100.00;101865.34;5053395;28;45387;-84
2023/10/15 07:13:20;;;;;;;;;7.67;5.67;;;;;10.82;100.00;101860.50;5034580;28;45473;-84
2023/10/15 07:15:46;;;;;;;;;7.33;4.00;;;;;10.93;100.00;101874.66;5055699;28;44804;-83
2023/10/15 07:18:18;;;;;;;;;8.00;6.00;;;;;10.91;100.00;101873.13;5040832;28;45479;-85
2023/10/15 07:20:44;;;;;;;;;6.67;6.67;;;;;11.03;100.00;101890.03;5038664;28;45420;-83
2023/10/15 07:23:10;;;;;;;;;7.00;5.67;;;;;11.00;100.00;101869.28;5029340;28;48033;-83
2023/10/15 07:25:35;;;;;;;;;8.67;5.67;;;;;10.78;100.00;101827.97;5038693;28;46081;-83
2023/10/15 07:28:02;;;;;;;;;5.33;5.00;;;;;11.19;100.00;101883.56;5039048;28;45706;-83
2023/10/15 07:30:33;;;;;;;;;7.00;6.00;;;;;11.13;100.00;101874.16;5023472;28;46969;-83
2023/10/15 07:33:00;;;;;;;;;7.00;7.00;;;;;11.15;100.00;101868.47;5029760;28;46454;-87
2023/10/15 07:35:35;;;;;;;;;8.33;5.67;;;;;11.33;100.00;101896.47;5039688;28;45591;-87
2023/10/15 07:38:04;;;;;;;;;11.00;11.00;;;;;11.17;100.00;101859.03;5027671;28;45527;-82
2023/10/15 07:40:32;;;;;;;;;13.67;10.67;;;;;11.27;100.00;101872.47;5011311;28;46272;-81
2023/10/15 07:43:03;;;;;;;;;11.00;10.00;;;;;11.42;100.00;101895.38;5028814;28;46154;-82
2023/10/15 07:45:37;;;;;;;;;10.00;8.00;;;;;11.52;100.00;101899.72;5031542;28;45537;-82
2023/10/15 07:48:04;;;;;;;;;9.33;8.33;;;;;11.52;100.00;101886.84;5032330;28;45614;-81
2023/10/15 07:50:36;;;;;;;;;15.67;12.33;;;;;11.66;100.00;101912.63;5036552;28;45552;-81
2023/10/15 07:53:03;;;;;;;;;7.00;7.00;;;;;11.68;100.00;101902.31;5009494;28;45580;-82
2023/10/15 07:55:31;;;;;;;;;9.67;8.67;;;;;11.76;100.00;101907.72;5032389;28;45581;-81
2023/10/15 07:57:57;;;;;;;;;8.33;6.67;;;;;11.87;100.00;101903.66;5032762;28;46193;-82
2023/10/15 08:00:23;;;;;;;;;7.67;6.33;;;;;12.04;100.00;101920.84;5031191;28;45462;-81
2023/10/15 08:02:52;;;;;;;;;3.33;3.33;;;;;12.13;100.00;101921.63;5032531;28;46511;-80
2023/10/15 08:05:22;;;;;;;;;5.67;3.33;;;;;12.15;100.00;101917.59;5013952;28;45581;-81
2023/10/15 08:07:50;;;;;;;;;6.67;5.00;;;;;12.18;100.00;101913.63;5029691;28;45572;-80
2023/10/15 08:10:17;;;;;;;;;5.33;4.00;;;;;12.20;100.00;101906.06;5029350;28;45557;-79
2023/10/15 08:12:44;;;;;;;;;6.33;5.67;;;;;12.32;100.00;101909.16;5022021;28;45603;-80
2023/10/15 08:15:10;;;;;;;;;5.33;2.33;;;;;12.48;100.00;101922.69;5033899;28;45721;-81
2023/10/15 08:17:36;;;;;;;;;7.33;4.67;;;;;12.45;100.00;101922.22;5032195;28;45542;-81
2023/10/15 08:20:04;;;;;;;;;3.33;3.00;;;;;12.57;100.00;101925.34;5029048;28;45743;-81
2023/10/15 08:22:29;;;;;;;;;6.33;2.67;;;;;12.50;100.00;101909.59;5030543;28;46349;-81
2023/10/15 08:24:57;;;;;;;;;4.00;3.00;;;;;12.52;100.00;101915.75;5017905;28;46346;-80
2023/10/15 08:27:23;;;;;;;;;4.33;3.33;;;;;12.53;100.00;101919.38;5032126;28;45632;-81
2023/10/15 08:29:49;;;;;;;;;1.67;1.67;;;;;12.60;100.00;101938.72;5035959;28;45592;-83
2023/10/15 08:32:16;;;;;;;;;1.67;1.00;;;;;12.63;100.00;101933.66;5035196;28;45798;-82
2023/10/15 08:37:24;;;;;;;;;1.67;0.67;;;;;12.74;100.00;101943.34;4958362;26;45733;-82
2023/10/15 08:39:49;;;;;;;;;3.00;1.67;;;;;12.71;100.00;101935.47;5005718;28;45803;-82
2023/10/15 08:42:26;;;;;;;;;5.67;4.00;;;;;12.77;100.00;101948.47;4998769;28;46016;-86
2023/10/15 08:44:57;;;;;;;;;1.67;1.67;;;;;12.85;100.00;101953.00;5013760;28;45840;-83
2023/10/15 08:47:25;;;;;;;;;3.67;2.33;;;;;12.89;100.00;101948.81;5016026;28;45751;-82
2023/10/15 08:49:52;;;;;;;;;8.00;8.00;;;;;12.95;100.00;101947.16;5013632;28;45420;-82
2023/10/15 08:52:21;;;;;;;;;2.00;2.00;;;;;12.97;100.00;101945.06;4995550;28;47244;-81
2023/10/15 08:54:46;;;;;;;;;4.67;2.67;;;;;13.11;100.00;101952.41;4980033;28;47299;-82
2023/10/15 08:57:14;;;;;;;;;3.33;2.67;;;;;13.19;100.00;101963.31;5004604;28;46015;-82
2023/10/15 08:59:40;;;;;;;;;1.00;1.00;;;;;13.27;100.00;101967.00;4991976;28;46552;-81
2023/10/15 09:02:08;;;;;;;;;2.00;1.67;;;;;13.33;100.00;101949.66;4985962;28;47208;-83
2023/10/15 09:04:34;;;;;;;;;2.33;1.33;;;;;13.80;100.00;101937.13;4997621;28;45675;-84
2023/10/15 09:07:03;;;;;;;;;2.00;2.00;;;;;14.77;100.00;101942.78;4981932;28;45529;-81
2023/10/15 09:09:32;;;;;;;;;1.67;1.67;;;;;15.51;100.00;101972.25;4989713;28;45739;-83
2023/10/15 09:11:59;;;;;;;;;5.00;4.67;;;;;16.19;100.00;101956.47;5005939;28;45512;-83
2023/10/15 09:14:43;;;;;;;;;0.33;0.33;;;;;17.71;100.00;101961.41;5005691;28;45582;-80
2023/10/15 09:17:14;;;;;;;;;1.00;1.00;;;;;18.24;100.00;101964.78;5007565;28;45797;-83
2023/10/15 09:19:42;;;;;;;;;0.00;0.00;;;;;19.19;100.00;101964.22;5006960;28;46826;-82
2023/10/15 09:22:15;;;;;;;;;0.67;0.67;;;;;19.61;100.00;101968.91;4983429;28;47345;-78
2023/10/15 09:24:42;;;;;;;;;1.00;1.00;;;;;19.50;100.00;101951.09;5005634;28;46001;-79
2023/10/15 09:27:13;;;;;;;;;0.00;0.00;;;;;20.24;100.00;101955.38;5008006;28;45748;-80
2023/10/15 09:29:38;;;;;;;;;0.00;0.00;;;;;21.29;99.26;101964.50;5017544;28;45935;-83
2023/10/15 09:32:04;;;;;;;;;0.00;0.00;;;;;21.37;95.79;101970.78;5016941;28;46345;-84
2023/10/15 09:34:31;;;;;;;;;0.50;0.00;;;;;21.71;92.94;101966.09;5012390;28;45792;-83
2023/10/15 09:36:58;;;;;;;;;0.00;0.00;;;;;22.44;90.43;101962.41;5005064;28;45637;-83
2023/10/15 09:39:26;;;;;;;;;1.50;0.00;;;;;22.70;87.25;101958.84;5012678;28;45566;-83
2023/10/15 09:41:54;;;;;;;;;1.00;1.00;;;;;22.73;82.34;101949.09;4996928;28;47611;-84
2023/10/15 09:44:25;;;;;;;;;0.50;0.00;;;;;22.10;79.67;101962.50;5014290;28;45875;-85
2023/10/15 09:46:53;;;;;;;;;0.00;0.00;;;;;21.37;78.04;101937.28;5009739;28;46030;-82
2023/10/15 09:49:20;;;;;;;;;0.00;0.00;;;;;21.62;78.19;101959.25;4994832;28;45980;-82
2023/10/15 09:51:50;;;;;;;;;0.25;0.00;;;;;21.11;77.32;101978.69;4991823;28;48260;-83
2023/10/15 09:54:19;;;;;;;;;1.00;0.00;;;;;21.07;77.67;101972.72;5008800;28;45767;-83
2023/10/15 09:56:46;;;;;;;;;0.25;0.25;;;;;21.40;75.36;101951.56;5011341;28;45939;-84
2023/10/15 09:59:14;;;;;;;;;0.25;0.25;;;;;22.23;76.44;101967.72;5009807;28;46243;-82
2023/10/15 10:01:47;;;;;;;;;0.00;0.00;;;;;23.13;75.24;101963.81;5005072;28;45723;-78
2023/10/15 10:04:42;;;;;;;;;0.00;0.00;;;;;23.77;69.69;101966.66;4998957;28;45925;-79
2023/10/15 10:07:36;;;;;;;;;1.00;1.00;;;;;24.04;69.55;101974.19;5002547;28;45557;-78
2023/10/15 10:10:51;;;;;;;;;0.00;0.00;;;;;24.29;66.63;101970.66;5005013;28;46330;-83
2023/10/15 10:13:20;;;;;;;;;1.00;1.00;;;;;24.37;65.83;101962.84;4950489;28;46392;-83
2023/10/15 10:15:57;;;;;;;;;1.00;1.00;;;;;23.76;67.31;101972.53;4991078;28;45712;-84
2023/10/15 10:18:29;;;;;;;;;3.00;1.00;;;;;23.05;65.76;101977.16;4991207;28;45946;-82
2023/10/15 10:20:56;;;;;;;;;0.00;0.00;;;;;22.45;66.85;101970.56;4988858;28;45914;-79
2023/10/15 10:23:25;;;;;;;;;0.50;0.50;;;;;21.69;66.52;101974.72;5008566;28;45753;-80
2023/10/15 10:25:50;;;;;;;;;0.25;0.25;;;;;21.33;64.37;101984.38;5004954;28;46059;-80
2023/10/15 10:28:20;;;;;;;;;0.75;0.75;;;;;21.42;67.29;101990.38;4990059;28;45754;-79
2023/10/15 10:30:58;;;;;;;;;0.00;0.00;;;;;21.27;67.97;101977.88;5002541;28;45730;-81
2023/10/15 10:33:42;;;;;;;;;1.25;0.00;;;;;21.68;64.89;101984.19;4989157;28;48166;-79
2023/10/15 10:36:15;;;;;;;;;0.00;0.00;;;;;21.68;66.45;101986.16;5008008;28;45854;-78
2023/10/15 10:38:52;;;;;;;;;1.00;1.00;;;;;21.85;65.70;101986.13;5002427;28;45717;-77
2023/10/15 10:41:17;;;;;;;;;0.50;0.50;;;;;21.98;64.40;101994.16;5006641;28;46033;-79
2023/10/15 10:43:46;;;;;;;;;0.00;0.00;;;;;21.05;62.29;101974.06;5003813;28;45551;-79
2023/10/15 10:46:24;;;;;;;;;0.25;0.00;;;;;20.22;64.19;102000.19;5001511;28;45983;-83
2023/10/15 10:49:08;;;;;;;;;0.00;0.00;;;;;19.96;66.71;102001.53;5001609;28;45779;-82
2023/10/15 10:51:36;;;;;;;;;2.50;1.00;;;;;20.07;63.94;101997.88;5003988;28;46044;-82
2023/10/15 10:54:03;;;;;;;;;0.00;0.00;;;;;19.97;62.41;101994.88;5008658;28;46563;-85
2023/10/15 10:56:38;;;;;;;;;0.00;0.00;;;;;19.93;63.66;101991.72;4984357;28;45857;-84
2023/10/15 10:59:06;;;;;;;;;0.50;0.50;;;;;19.99;63.73;101977.94;5007965;28;45617;-82
2023/10/15 11:01:42;;;;;;;;;0.00;0.00;;;;;20.13;65.11;101998.03;4994464;28;46561;-83
2023/10/15 11:04:10;;;;;;;;;1.00;0.50;;;;;19.93;65.77;101994.50;4990550;28;46317;-82
2023/10/15 11:06:45;;;;;;;;;0.00;0.00;;;;;19.82;65.27;101977.78;4989923;28;45819;-83
2023/10/15 11:09:19;;;;;;;;;0.00;0.00;;;;;19.97;65.16;101988.44;5011243;28;45607;-82
2023/10/15 11:11:47;;;;;;;;;0.00;0.00;;;;;19.53;64.24;101995.13;4992487;28;45456;-83
2023/10/15 11:14:13;;;;;;;;;0.00;0.00;;;;;18.87;65.59;102000.56;5002483;28;45525;-82
2023/10/15 11:16:45;;;;;;;;;1.00;0.50;;;;;18.39;64.50;102000.50;4992270;28;45279;-83
2023/10/15 11:19:21;;;;;;;;;0.33;0.00;;;;;18.05;62.50;102000.81;5017430;28;45359;-83
2023/10/15 11:21:48;;;;;;;;;0.00;0.00;;;;;17.67;64.99;101987.91;5022305;28;45601;-84
2023/10/15 11:24:15;;;;;;;;;2.00;2.00;;;;;17.72;65.14;102001.09;4998932;28;46809;-84
2023/10/15 11:26:42;;;;;;;;;0.00;0.00;;;;;17.52;64.74;101995.72;4996812;28;46042;-82
2023/10/15 11:32:11;;;;;;;;;19.67;16.00;;;;;17.13;66.84;101994.91;5005870;28;45765;-77
2023/10/15 11:34:39;;;;;;;;;0.67;0.67;;;;;16.83;66.92;101989.91;4994217;28;48366;-82
2023/10/15 11:37:07;;;;;;;;;0.00;0.00;;;;;16.59;64.30;101984.03;5012971;28;45881;-82
2023/10/15 11:39:42;;;;;;;;;36.33;29.33;;;;;16.54;67.54;101975.53;4996438;28;45557;-83
2023/10/15 11:42:08;;;;;;;;;2.00;0.33;;;;;16.58;65.69;101974.88;4988434;28;45869;-83